sensor_id;sensor_type;location;lat;lon;timestamp;P1;durP1;ratioP1;P2;durP2;ratioP2
3991;SDS011;2010;48.194;16.394;2022-09-28T13:03:36;1.90;;;1.10;;
3991;SDS011;2010;48.194;16.394;2022-09-28T13:06:24;5.07;;;1.40;;
3991;SDS011;2010;48.194;16.394;2022-09-28T13:09:18;3.33;;;1.10;;
3991;SDS011;2010;48.194;16.394;2022-09-28T13:11:53;2.20;;;1.30;;
3991;SDS011;2010;48.194;16.394;2022-09-28T13:17:43;1.77;;;1.10;;
3991;SDS011;2010;48.194;16.394;2022-09-28T13:20:26;1.17;;;1.00;;
3991;SDS011;2010;48.194;16.394;2022-09-28T13:23:21;1.50;;;1.37;;
3991;SDS011;2010;48.194;16.394;2022-09-28T13:25:55;1.03;;;0.93;;
3991;SDS011;2010;48.194;16.394;2022-09-28T13:28:30;1.70;;;1.10;;
3991;SDS011;2010;48.194;16.394;2022-09-28T13:31:00;1.50;;;1.37;;
3991;SDS011;2010;48.194;16.394;2022-09-28T13:33:31;2.43;;;1.13;;
3991;SDS011;2010;48.194;16.394;2022-09-28T13:36:07;0.93;;;0.93;;
3991;SDS011;2010;48.194;16.394;2022-09-28T13:42:05;2.50;;;0.90;;
3991;SDS011;2010;48.194;16.394;2022-09-28T13:47:49;1.00;;;0.70;;
3991;SDS011;2010;48.194;16.394;2022-09-28T13:50:32;0.90;;;0.90;;
3991;SDS011;2010;48.194;16.394;2022-09-28T13:53:11;2.10;;;1.13;;
3991;SDS011;2010;48.194;16.394;2022-09-28T13:55:50;1.13;;;1.03;;
3991;SDS011;2010;48.194;16.394;2022-09-28T13:58:26;1.60;;;1.10;;
3991;SDS011;2010;48.194;16.394;2022-09-28T14:00:58;1.00;;;1.00;;
3991;SDS011;2010;48.194;16.394;2022-09-28T14:03:43;1.40;;;1.30;;
3991;SDS011;2010;48.194;16.394;2022-09-28T14:06:29;1.57;;;1.37;;
3991;SDS011;2010;48.194;16.394;2022-09-28T14:09:21;1.50;;;1.40;;
3991;SDS011;2010;48.194;16.394;2022-09-28T14:11:59;3.50;;;1.07;;
3991;SDS011;2010;48.194;16.394;2022-09-28T14:14:49;3.27;;;1.27;;
3991;SDS011;2010;48.194;16.394;2022-09-28T14:20:22;2.17;;;1.30;;
3991;SDS011;2010;48.194;16.394;2022-09-28T14:22:56;1.07;;;1.07;;
3991;SDS011;2010;48.194;16.394;2022-09-28T14:25:59;0.87;;;0.87;;
3991;SDS011;2010;48.194;16.394;2022-09-28T14:28:44;1.20;;;1.20;;
3991;SDS011;2010;48.194;16.394;2022-09-28T14:31:26;1.30;;;1.20;;
3991;SDS011;2010;48.194;16.394;2022-09-28T14:33:59;1.00;;;1.00;;
3991;SDS011;2010;48.194;16.394;2022-09-28T14:36:31;3.47;;;1.33;;
3991;SDS011;2010;48.194;16.394;2022-09-28T14:39:25;7.07;;;1.40;;
3991;SDS011;2010;48.194;16.394;2022-09-28T14:42:18;1.30;;;0.93;;
3991;SDS011;2010;48.194;16.394;2022-09-28T14:48:20;7.40;;;1.07;;
3991;SDS011;2010;48.194;16.394;2022-09-28T14:51:11;3.70;;;1.00;;
3991;SDS011;2010;48.194;16.394;2022-09-28T14:54:39;5.60;;;1.10;;
3991;SDS011;2010;48.194;16.394;2022-09-28T14:57:28;1.40;;;1.30;;
3991;SDS011;2010;48.194;16.394;2022-09-28T15:00:13;1.83;;;1.10;;
3991;SDS011;2010;48.194;16.394;2022-09-28T15:02:53;1.60;;;0.90;;
3991;SDS011;2010;48.194;16.394;2022-09-28T15:05:41;2.10;;;1.00;;
3991;SDS011;2010;48.194;16.394;2022-09-28T15:08:37;1.90;;;1.20;;
3991;SDS011;2010;48.194;16.394;2022-09-28T15:11:10;1.00;;;1.00;;
3991;SDS011;2010;48.194;16.394;2022-09-28T15:14:09;1.00;;;0.90;;
3991;SDS011;2010;48.194;16.394;2022-09-28T15:16:46;2.30;;;1.43;;
3991;SDS011;2010;48.194;16.394;2022-09-28T15:19:20;1.30;;;1.20;;
3991;SDS011;2010;48.194;16.394;2022-09-28T15:21:54;1.57;;;1.20;;
3991;SDS011;2010;48.194;16.394;2022-09-28T15:24:29;6.03;;;0.87;;
3991;SDS011;2010;48.194;16.394;2022-09-28T15:27:02;1.30;;;1.07;;
3991;SDS011;2010;48.194;16.394;2022-09-28T15:32:28;1.77;;;0.90;;
3991;SDS011;2010;48.194;16.394;2022-09-28T15:35:08;1.13;;;1.03;;
3991;SDS011;2010;48.194;16.394;2022-09-28T15:37:42;2.10;;;1.10;;
3991;SDS011;2010;48.194;16.394;2022-09-28T15:40:10;1.00;;;1.00;;
3991;SDS011;2010;48.194;16.394;2022-09-28T15:42:48;1.47;;;0.73;;
3991;SDS011;2010;48.194;16.394;2022-09-28T15:45:32;4.60;;;1.00;;
3991;SDS011;2010;48.194;16.394;2022-09-28T15:48:16;0.93;;;0.93;;
3991;SDS011;2010;48.194;16.394;2022-09-28T15:50:54;1.93;;;1.30;;
3991;SDS011;2010;48.194;16.394;2022-09-28T15:53:30;1.27;;;1.10;;
3991;SDS011;2010;48.194;16.394;2022-09-28T15:56:08;0.80;;;0.80;;
3991;SDS011;2010;48.194;16.394;2022-09-28T16:01:44;3.10;;;1.13;;
3991;SDS011;2010;48.194;16.394;2022-09-28T16:04:37;1.60;;;1.00;;
3991;SDS011;2010;48.194;16.394;2022-09-28T16:07:26;1.73;;;1.10;;
3991;SDS011;2010;48.194;16.394;2022-09-28T16:10:01;1.20;;;1.10;;
3991;SDS011;2010;48.194;16.394;2022-09-28T16:12:45;1.20;;;1.10;;
3991;SDS011;2010;48.194;16.394;2022-09-28T16:15:17;1.30;;;1.20;;
3991;SDS011;2010;48.194;16.394;2022-09-28T16:17:49;1.17;;;1.07;;
3991;SDS011;2010;48.194;16.394;2022-09-28T16:20:24;2.17;;;1.00;;
3991;SDS011;2010;48.194;16.394;2022-09-28T16:22:56;1.37;;;1.27;;
3991;SDS011;2010;48.194;16.394;2022-09-28T16:25:32;1.20;;;1.20;;
3991;SDS011;2010;48.194;16.394;2022-09-28T16:28:16;4.57;;;1.80;;
3991;SDS011;2010;48.194;16.394;2022-09-28T16:31:21;3.43;;;1.20;;
3991;SDS011;2010;48.194;16.394;2022-09-28T16:34:14;7.00;;;1.30;;
3991;SDS011;2010;48.194;16.394;2022-09-28T16:36:59;1.20;;;1.10;;
3991;SDS011;2010;48.194;16.394;2022-09-28T16:39:29;8.50;;;6.10;;
3991;SDS011;2010;48.194;16.394;2022-09-28T16:41:59;9.67;;;6.40;;
3991;SDS011;2010;48.194;16.394;2022-09-28T16:44:33;6.70;;;5.80;;
3991;SDS011;2010;48.194;16.394;2022-09-28T16:47:04;4.50;;;1.93;;
3991;SDS011;2010;48.194;16.394;2022-09-28T16:49:39;1.43;;;1.33;;
3991;SDS011;2010;48.194;16.394;2022-09-28T16:52:09;1.50;;;1.20;;
3991;SDS011;2010;48.194;16.394;2022-09-28T16:55:04;3.47;;;1.10;;
3991;SDS011;2010;48.194;16.394;2022-09-28T16:58:05;1.83;;;0.90;;
3991;SDS011;2010;48.194;16.394;2022-09-28T17:00:40;0.80;;;0.80;;
3991;SDS011;2010;48.194;16.394;2022-09-28T17:03:23;2.10;;;1.27;;
3991;SDS011;2010;48.194;16.394;2022-09-28T17:06:00;1.40;;;1.30;;
3991;SDS011;2010;48.194;16.394;2022-09-28T17:08:39;2.20;;;1.27;;
3991;SDS011;2010;48.194;16.394;2022-09-28T17:11:12;1.33;;;1.10;;
3991;SDS011;2010;48.194;16.394;2022-09-28T17:13:52;1.20;;;1.20;;
3991;SDS011;2010;48.194;16.394;2022-09-28T17:16:26;0.93;;;0.93;;
3991;SDS011;2010;48.194;16.394;2022-09-28T17:19:21;1.10;;;1.10;;
3991;SDS011;2010;48.194;16.394;2022-09-28T17:22:00;4.30;;;1.40;;
3991;SDS011;2010;48.194;16.394;2022-09-28T17:24:34;1.27;;;1.17;;
3991;SDS011;2010;48.194;16.394;2022-09-28T17:27:04;1.77;;;1.50;;
3991;SDS011;2010;48.194;16.394;2022-09-28T17:29:41;1.30;;;1.20;;
3991;SDS011;2010;48.194;16.394;2022-09-28T17:32:12;1.00;;;1.00;;
3991;SDS011;2010;48.194;16.394;2022-09-28T17:34:47;2.57;;;1.33;;
3991;SDS011;2010;48.194;16.394;2022-09-28T17:37:45;1.50;;;1.40;;
3991;SDS011;2010;48.194;16.394;2022-09-28T17:40:25;3.17;;;1.63;;
3991;SDS011;2010;48.194;16.394;2022-09-28T17:42:54;0.90;;;0.90;;
3991;SDS011;2010;48.194;16.394;2022-09-28T17:45:26;1.27;;;0.93;;
3991;SDS011;2010;48.194;16.394;2022-09-28T17:48:08;1.20;;;1.10;;
3991;SDS011;2010;48.194;16.394;2022-09-28T17:50:47;1.23;;;1.13;;
3991;SDS011;2010;48.194;16.394;2022-09-28T17:53:37;1.30;;;1.20;;
3991;SDS011;2010;48.194;16.394;2022-09-28T17:56:10;1.10;;;1.03;;
3991;SDS011;2010;48.194;16.394;2022-09-28T17:58:42;1.60;;;1.50;;
3991;SDS011;2010;48.194;16.394;2022-09-28T18:01:16;1.70;;;1.60;;
3991;SDS011;2010;48.194;16.394;2022-09-28T18:03:51;1.30;;;1.20;;
3991;SDS011;2010;48.194;16.394;2022-09-28T18:06:28;1.50;;;1.40;;
3991;SDS011;2010;48.194;16.394;2022-09-28T18:09:08;1.27;;;1.17;;
3991;SDS011;2010;48.194;16.394;2022-09-28T18:11:42;1.83;;;1.60;;
3991;SDS011;2010;48.194;16.394;2022-09-28T18:14:15;1.83;;;1.73;;
3991;SDS011;2010;48.194;16.394;2022-09-28T18:17:00;2.50;;;1.57;;
3991;SDS011;2010;48.194;16.394;2022-09-28T18:19:33;2.03;;;1.57;;
3991;SDS011;2010;48.194;16.394;2022-09-28T18:22:03;9.97;;;4.00;;
3991;SDS011;2010;48.194;16.394;2022-09-28T18:24:38;4.23;;;3.83;;
3991;SDS011;2010;48.194;16.394;2022-09-28T18:27:18;11.50;;;8.30;;
3991;SDS011;2010;48.194;16.394;2022-09-28T18:29:53;4.70;;;4.30;;
3991;SDS011;2010;48.194;16.394;2022-09-28T18:32:23;1.93;;;1.83;;
3991;SDS011;2010;48.194;16.394;2022-09-28T18:34:54;2.00;;;1.30;;
3991;SDS011;2010;48.194;16.394;2022-09-28T18:37:23;1.80;;;1.33;;
3991;SDS011;2010;48.194;16.394;2022-09-28T18:39:56;5.80;;;5.30;;
3991;SDS011;2010;48.194;16.394;2022-09-28T18:42:25;1.97;;;1.87;;
3991;SDS011;2010;48.194;16.394;2022-09-28T18:44:57;2.37;;;1.90;;
3991;SDS011;2010;48.194;16.394;2022-09-28T18:47:32;2.97;;;2.77;;
3991;SDS011;2010;48.194;16.394;2022-09-28T18:50:04;2.10;;;1.90;;
3991;SDS011;2010;48.194;16.394;2022-09-28T18:52:35;7.30;;;6.30;;
3991;SDS011;2010;48.194;16.394;2022-09-28T18:55:19;4.20;;;3.10;;
3991;SDS011;2010;48.194;16.394;2022-09-28T18:57:49;4.23;;;3.40;;
3991;SDS011;2010;48.194;16.394;2022-09-28T19:00:29;2.00;;;1.90;;
3991;SDS011;2010;48.194;16.394;2022-09-28T19:03:00;2.53;;;1.60;;
3991;SDS011;2010;48.194;16.394;2022-09-28T19:05:31;2.50;;;2.20;;
3991;SDS011;2010;48.194;16.394;2022-09-28T19:08:05;4.13;;;1.73;;
3991;SDS011;2010;48.194;16.394;2022-09-28T19:10:41;2.23;;;2.03;;
3991;SDS011;2010;48.194;16.394;2022-09-28T19:13:19;2.93;;;2.60;;
3991;SDS011;2010;48.194;16.394;2022-09-28T19:15:58;4.30;;;3.63;;
3991;SDS011;2010;48.194;16.394;2022-09-28T19:18:32;2.83;;;2.40;;
3991;SDS011;2010;48.194;16.394;2022-09-28T19:21:18;5.87;;;3.93;;
3991;SDS011;2010;48.194;16.394;2022-09-28T19:24:04;2.07;;;1.87;;
3991;SDS011;2010;48.194;16.394;2022-09-28T19:26:39;1.80;;;1.27;;
3991;SDS011;2010;48.194;16.394;2022-09-28T19:29:11;2.13;;;2.00;;
3991;SDS011;2010;48.194;16.394;2022-09-28T19:31:41;2.60;;;1.50;;
3991;SDS011;2010;48.194;16.394;2022-09-28T19:34:11;1.70;;;1.60;;
3991;SDS011;2010;48.194;16.394;2022-09-28T19:36:42;1.20;;;1.20;;
3991;SDS011;2010;48.194;16.394;2022-09-28T19:39:15;2.90;;;1.40;;
3991;SDS011;2010;48.194;16.394;2022-09-28T19:41:47;3.10;;;1.20;;
3991;SDS011;2010;48.194;16.394;2022-09-28T19:44:19;2.63;;;1.30;;
3991;SDS011;2010;48.194;16.394;2022-09-28T19:46:54;1.47;;;1.37;;
3991;SDS011;2010;48.194;16.394;2022-09-28T19:49:28;3.83;;;1.10;;
3991;SDS011;2010;48.194;16.394;2022-09-28T19:52:02;1.27;;;1.17;;
3991;SDS011;2010;48.194;16.394;2022-09-28T19:54:43;0.90;;;0.90;;
3991;SDS011;2010;48.194;16.394;2022-09-28T19:57:23;1.93;;;1.00;;
3991;SDS011;2010;48.194;16.394;2022-09-28T19:59:54;1.53;;;1.27;;
3991;SDS011;2010;48.194;16.394;2022-09-28T20:02:32;1.73;;;1.00;;
3991;SDS011;2010;48.194;16.394;2022-09-28T20:05:08;2.60;;;0.90;;
3991;SDS011;2010;48.194;16.394;2022-09-28T20:07:38;0.70;;;0.67;;
3991;SDS011;2010;48.194;16.394;2022-09-28T20:10:14;1.83;;;0.80;;
3991;SDS011;2010;48.194;16.394;2022-09-28T20:12:48;1.23;;;0.90;;
3991;SDS011;2010;48.194;16.394;2022-09-28T20:15:26;0.67;;;0.67;;
3991;SDS011;2010;48.194;16.394;2022-09-28T20:18:05;1.53;;;0.80;;
3991;SDS011;2010;48.194;16.394;2022-09-28T20:20:37;3.80;;;1.20;;
3991;SDS011;2010;48.194;16.394;2022-09-28T20:23:10;1.00;;;1.00;;
3991;SDS011;2010;48.194;16.394;2022-09-28T20:25:44;1.67;;;0.73;;
3991;SDS011;2010;48.194;16.394;2022-09-28T20:28:21;0.90;;;0.90;;
3991;SDS011;2010;48.194;16.394;2022-09-28T20:30:52;0.70;;;0.70;;
3991;SDS011;2010;48.194;16.394;2022-09-28T20:33:23;0.53;;;0.53;;
3991;SDS011;2010;48.194;16.394;2022-09-28T20:35:56;6.20;;;1.03;;
3991;SDS011;2010;48.194;16.394;2022-09-28T20:38:27;0.97;;;0.97;;
3991;SDS011;2010;48.194;16.394;2022-09-28T20:41:07;0.93;;;0.93;;
3991;SDS011;2010;48.194;16.394;2022-09-28T20:43:40;0.73;;;0.73;;
3991;SDS011;2010;48.194;16.394;2022-09-28T20:46:12;1.13;;;0.80;;
3991;SDS011;2010;48.194;16.394;2022-09-28T20:48:48;0.93;;;0.60;;
3991;SDS011;2010;48.194;16.394;2022-09-28T20:51:20;0.60;;;0.60;;
3991;SDS011;2010;48.194;16.394;2022-09-28T20:53:53;1.43;;;0.70;;
3991;SDS011;2010;48.194;16.394;2022-09-28T20:56:26;0.80;;;0.80;;
3991;SDS011;2010;48.194;16.394;2022-09-28T20:59:11;1.03;;;0.80;;
3991;SDS011;2010;48.194;16.394;2022-09-28T21:01:45;0.80;;;0.80;;
3991;SDS011;2010;48.194;16.394;2022-09-28T21:04:16;0.80;;;0.80;;
3991;SDS011;2010;48.194;16.394;2022-09-28T21:06:55;0.70;;;0.70;;
3991;SDS011;2010;48.194;16.394;2022-09-28T21:09:26;1.37;;;0.53;;
3991;SDS011;2010;48.194;16.394;2022-09-28T21:11:59;0.90;;;0.87;;
3991;SDS011;2010;48.194;16.394;2022-09-28T21:14:39;1.80;;;1.13;;
3991;SDS011;2010;48.194;16.394;2022-09-28T21:17:11;1.77;;;1.00;;
3991;SDS011;2010;48.194;16.394;2022-09-28T21:19:41;0.90;;;0.90;;
3991;SDS011;2010;48.194;16.394;2022-09-28T21:22:13;1.30;;;1.20;;
3991;SDS011;2010;48.194;16.394;2022-09-28T21:24:47;1.07;;;1.07;;
3991;SDS011;2010;48.194;16.394;2022-09-28T21:27:20;1.30;;;1.10;;
3991;SDS011;2010;48.194;16.394;2022-09-28T21:30:05;1.10;;;0.83;;
3991;SDS011;2010;48.194;16.394;2022-09-28T21:32:38;2.20;;;1.47;;
3991;SDS011;2010;48.194;16.394;2022-09-28T21:35:10;1.60;;;0.87;;
3991;SDS011;2010;48.194;16.394;2022-09-28T21:37:44;0.80;;;0.80;;
3991;SDS011;2010;48.194;16.394;2022-09-28T21:40:14;1.47;;;1.37;;
3991;SDS011;2010;48.194;16.394;2022-09-28T21:42:59;1.27;;;1.17;;
3991;SDS011;2010;48.194;16.394;2022-09-28T21:45:33;1.30;;;1.20;;
3991;SDS011;2010;48.194;16.394;2022-09-28T21:48:04;0.80;;;0.80;;
3991;SDS011;2010;48.194;16.394;2022-09-28T21:50:52;1.03;;;0.97;;
3991;SDS011;2010;48.194;16.394;2022-09-28T21:53:27;2.07;;;1.20;;
3991;SDS011;2010;48.194;16.394;2022-09-28T21:55:59;1.00;;;0.90;;
3991;SDS011;2010;48.194;16.394;2022-09-28T21:58:29;0.90;;;0.90;;
3991;SDS011;2010;48.194;16.394;2022-09-28T22:01:02;1.50;;;0.80;;
3991;SDS011;2010;48.194;16.394;2022-09-28T22:03:34;1.17;;;0.90;;
3991;SDS011;2010;48.194;16.394;2022-09-28T22:06:09;5.17;;;1.33;;
3991;SDS011;2010;48.194;16.394;2022-09-28T22:08:41;1.63;;;1.13;;
3991;SDS011;2010;48.194;16.394;2022-09-28T22:11:17;1.17;;;1.13;;
3991;SDS011;2010;48.194;16.394;2022-09-28T22:13:48;1.37;;;0.87;;
3991;SDS011;2010;48.194;16.394;2022-09-28T22:16:24;1.13;;;0.90;;
3991;SDS011;2010;48.194;16.394;2022-09-28T22:19:02;1.30;;;1.13;;
3991;SDS011;2010;48.194;16.394;2022-09-28T22:21:34;1.63;;;0.80;;
3991;SDS011;2010;48.194;16.394;2022-09-28T22:24:06;1.07;;;0.97;;
3991;SDS011;2010;48.194;16.394;2022-09-28T22:26:35;0.70;;;0.70;;
3991;SDS011;2010;48.194;16.394;2022-09-28T22:29:05;1.23;;;0.87;;
3991;SDS011;2010;48.194;16.394;2022-09-28T22:31:38;1.00;;;0.83;;
3991;SDS011;2010;48.194;16.394;2022-09-28T22:34:13;0.87;;;0.77;;
3991;SDS011;2010;48.194;16.394;2022-09-28T22:36:46;1.43;;;0.90;;
3991;SDS011;2010;48.194;16.394;2022-09-28T22:39:14;0.93;;;0.77;;
3991;SDS011;2010;48.194;16.394;2022-09-28T22:41:44;1.97;;;0.83;;
3991;SDS011;2010;48.194;16.394;2022-09-28T22:44:12;0.80;;;0.80;;
3991;SDS011;2010;48.194;16.394;2022-09-28T22:46:52;1.10;;;1.00;;
3991;SDS011;2010;48.194;16.394;2022-09-28T22:49:22;1.00;;;0.80;;
3991;SDS011;2010;48.194;16.394;2022-09-28T22:51:53;1.00;;;0.90;;
3991;SDS011;2010;48.194;16.394;2022-09-28T22:54:24;1.03;;;1.00;;
3991;SDS011;2010;48.194;16.394;2022-09-28T22:57:09;0.83;;;0.83;;
3991;SDS011;2010;48.194;16.394;2022-09-28T22:59:38;3.13;;;0.80;;
3991;SDS011;2010;48.194;16.394;2022-09-28T23:02:19;2.47;;;0.90;;
3991;SDS011;2010;48.194;16.394;2022-09-28T23:04:47;1.20;;;0.80;;
3991;SDS011;2010;48.194;16.394;2022-09-28T23:07:25;1.77;;;1.00;;
3991;SDS011;2010;48.194;16.394;2022-09-28T23:09:53;4.30;;;0.97;;
3991;SDS011;2010;48.194;16.394;2022-09-28T23:12:26;0.90;;;0.90;;
3991;SDS011;2010;48.194;16.394;2022-09-28T23:15:02;1.07;;;0.67;;
3991;SDS011;2010;48.194;16.394;2022-09-28T23:17:35;1.00;;;0.90;;
3991;SDS011;2010;48.194;16.394;2022-09-28T23:20:07;0.60;;;0.60;;
3991;SDS011;2010;48.194;16.394;2022-09-28T23:22:36;1.43;;;1.00;;
3991;SDS011;2010;48.194;16.394;2022-09-28T23:25:04;1.30;;;0.73;;
3991;SDS011;2010;48.194;16.394;2022-09-28T23:27:37;3.43;;;0.90;;
3991;SDS011;2010;48.194;16.394;2022-09-28T23:30:08;1.60;;;0.90;;
3991;SDS011;2010;48.194;16.394;2022-09-28T23:32:38;2.10;;;0.97;;
3991;SDS011;2010;48.194;16.394;2022-09-28T23:35:07;1.10;;;1.00;;
3991;SDS011;2010;48.194;16.394;2022-09-28T23:37:36;0.90;;;0.90;;
3991;SDS011;2010;48.194;16.394;2022-09-28T23:40:05;1.17;;;1.17;;
3991;SDS011;2010;48.194;16.394;2022-09-28T23:42:37;1.00;;;0.90;;
3991;SDS011;2010;48.194;16.394;2022-09-28T23:45:09;3.47;;;0.90;;
3991;SDS011;2010;48.194;16.394;2022-09-28T23:47:42;1.80;;;0.80;;
3991;SDS011;2010;48.194;16.394;2022-09-28T23:50:14;2.70;;;1.10;;
3991;SDS011;2010;48.194;16.394;2022-09-28T23:52:46;1.03;;;0.70;;
3991;SDS011;2010;48.194;16.394;2022-09-28T23:55:22;1.37;;;0.93;;
3991;SDS011;2010;48.194;16.394;2022-09-28T23:57:51;0.93;;;0.90;;
